Time;durP1;ratioP1;P1;durP2;ratioP2;P2;SDS_P1;SDS_P2;PMS_P1;PMS_P2;Temp;Humidity;BMP_temperature;BMP_pressure;BME280_temperature;BME280_humidity;BME280_pressure;Samples;Min_cycle;Max_cycle;Signal;HPM_P1;HPM_P2
2023/03/18 00:02:44;;;;;;;35.30;15.23;;;;;;;;;;10315551;28;20381;-77
2023/03/18 00:07:46;;;;;;;38.17;15.93;;;;;;;;;;10323048;28;20060;-77
2023/03/18 00:12:46;;;;;;;41.45;16.90;;;;;;;;;;10337216;28;20038;-77
2023/03/18 00:17:47;;;;;;;41.53;14.88;;;;;;;;;;10315843;28;20038;-77
2023/03/18 00:22:47;;;;;;;31.00;15.02;;;;;;;;;;10340456;28;20061;-77
2023/03/18 00:27:48;;;;;;;33.22;15.93;;;;;;;;;;10340630;28;20049;-77
2023/03/18 00:32:49;;;;;;;32.90;15.45;;;;;;;;;;10338379;28;20705;-77
2023/03/18 00:37:49;;;;;;;35.88;16.83;;;;;;;;;;10344623;28;20041;-76
2023/03/18 00:42:56;;;;;;;36.50;15.90;;;;;;;;;;10343494;28;20737;-76
2023/03/18 00:47:56;;;;;;;31.42;16.13;;;;;;;;;;10347650;28;20057;-77
2023/03/18 00:52:58;;;;;;;31.77;16.45;;;;;;;;;;10347883;28;20060;-77
2023/03/18 00:57:58;;;;;;;24.98;12.35;;;;;;;;;;10345481;28;20484;-77
2023/03/18 01:02:59;;;;;;;19.53;8.63;;;;;;;;;;10347032;28;20113;-76
2023/03/18 01:07:59;;;;;;;17.03;8.53;;;;;;;;;;10346681;28;20030;-75
2023/03/18 01:12:59;;;;;;;15.35;8.60;;;;;;;;;;10345830;28;20264;-75
2023/03/18 01:18:00;;;;;;;18.35;7.95;;;;;;;;;;10345648;28;20030;-77
2023/03/18 01:23:01;;;;;;;16.75;7.68;;;;;;;;;;10346516;28;20033;-77
2023/03/18 01:28:01;;;;;;;14.07;7.75;;;;;;;;;;10345680;28;20088;-77
2023/03/18 01:33:03;;;;;;;21.10;7.43;;;;;;;;;;10345466;28;20496;-77
2023/03/18 01:38:04;;;;;;;15.43;7.63;;;;;;;;;;10349194;28;20104;-77
2023/03/18 01:43:12;;;;;;;17.63;7.53;;;;;;;;;;10345077;28;20456;-76
2023/03/18 01:48:15;;;;;;;16.88;8.23;;;;;;;;;;10344949;28;20482;-76
2023/03/18 01:53:16;;;;;;;18.17;8.93;;;;;;;;;;10343694;28;20065;-76
2023/03/18 01:58:23;;;;;;;15.90;7.63;;;;;;;;;;10358706;28;20415;-76
2023/03/18 02:03:24;;;;;;;19.02;6.90;;;;;;;;;;10359029;28;20029;-76
2023/03/18 02:08:24;;;;;;;12.43;6.97;;;;;;;;;;10358823;28;20029;-76
2023/03/18 02:13:26;;;;;;;14.48;7.18;;;;;;;;;;10343770;28;20041;-76
2023/03/18 02:18:29;;;;;;;15.00;7.50;;;;;;;;;;10344018;28;20567;-76
2023/03/18 02:23:33;;;;;;;15.55;7.65;;;;;;;;;;10343558;28;20088;-77
2023/03/18 02:28:35;;;;;;;15.70;7.28;;;;;;;;;;10343547;28;20034;-76
2023/03/18 02:33:37;;;;;;;13.15;7.10;;;;;;;;;;10344132;28;20034;-77
2023/03/18 02:38:44;;;;;;;13.52;6.90;;;;;;;;;;10344530;28;20025;-76
2023/03/18 02:43:45;;;;;;;12.30;6.20;;;;;;;;;;10326001;28;20085;-77
2023/03/18 02:48:46;;;;;;;12.35;6.03;;;;;;;;;;10359249;28;20057;-78
2023/03/18 02:53:47;;;;;;;9.63;5.40;;;;;;;;;;10358865;28;20806;-76
2023/03/18 02:58:47;;;;;;;9.55;5.18;;;;;;;;;;10359143;28;20030;-77
2023/03/18 03:03:48;;;;;;;12.20;5.60;;;;;;;;;;10342911;28;20029;-76
2023/03/18 03:08:48;;;;;;;10.43;6.07;;;;;;;;;;10343997;28;20049;-77
2023/03/18 03:13:48;;;;;;;11.83;5.77;;;;;;;;;;10328163;28;20038;-77
2023/03/18 03:18:49;;;;;;;8.17;4.97;;;;;;;;;;10304136;28;20683;-76
2023/03/18 03:23:50;;;;;;;11.95;4.07;;;;;;;;;;10341999;28;20030;-77
2023/03/18 03:28:50;;;;;;;13.60;4.25;;;;;;;;;;10356217;28;20034;-78
2023/03/18 03:33:51;;;;;;;8.88;6.32;;;;;;;;;;10340286;28;20066;-76
2023/03/18 03:38:51;;;;;;;9.80;5.60;;;;;;;;;;10340828;28;20029;-76
2023/03/18 03:43:52;;;;;;;8.80;5.35;;;;;;;;;;10340260;28;20038;-77
2023/03/18 03:48:52;;;;;;;9.98;5.88;;;;;;;;;;10340366;28;20080;-76
2023/03/18 03:53:53;;;;;;;9.25;5.47;;;;;;;;;;10355578;28;20042;-76
2023/03/18 03:58:54;;;;;;;12.32;5.90;;;;;;;;;;10340206;28;20030;-77
2023/03/18 04:03:54;;;;;;;9.17;5.87;;;;;;;;;;10338548;28;20061;-77
2023/03/18 04:08:55;;;;;;;11.38;4.97;;;;;;;;;;10340008;28;20184;-78
2023/03/18 04:13:55;;;;;;;13.07;5.72;;;;;;;;;;10354870;28;20100;-77
2023/03/18 04:18:56;;;;;;;11.30;4.97;;;;;;;;;;10338955;28;20044;-77
2023/03/18 04:23:56;;;;;;;9.52;4.97;;;;;;;;;;10339974;28;20026;-76
2023/03/18 04:28:56;;;;;;;7.00;5.13;;;;;;;;;;10340066;28;20123;-77
2023/03/18 04:33:58;;;;;;;10.38;5.82;;;;;;;;;;10339223;28;20034;-77
2023/03/18 04:38:59;;;;;;;14.20;6.50;;;;;;;;;;10341187;28;20022;-76
2023/03/18 04:43:59;;;;;;;13.18;6.57;;;;;;;;;;10340447;28;20026;-76
2023/03/18 04:48:59;;;;;;;14.05;6.40;;;;;;;;;;10340141;28;20054;-77
2023/03/18 04:54:00;;;;;;;15.88;7.88;;;;;;;;;;10355279;28;20427;-78
2023/03/18 04:59:00;;;;;;;20.77;8.73;;;;;;;;;;10340068;28;20105;-79
2023/03/18 05:04:01;;;;;;;15.10;6.43;;;;;;;;;;10339000;28;20033;-78
2023/03/18 05:09:04;;;;;;;13.70;7.47;;;;;;;;;;10340480;28;20160;-77
2023/03/18 05:14:04;;;;;;;19.30;7.55;;;;;;;;;;10347019;28;20173;-78
2023/03/18 05:19:04;;;;;;;13.77;7.45;;;;;;;;;;10356482;28;20030;-79
2023/03/18 05:24:05;;;;;;;10.60;5.80;;;;;;;;;;10356490;28;20056;-79
2023/03/18 05:29:05;;;;;;;10.90;5.60;;;;;;;;;;10360069;28;20380;-79
2023/03/18 05:34:06;;;;;;;10.45;5.55;;;;;;;;;;10372128;28;20038;-77
2023/03/18 05:39:06;;;;;;;20.20;6.55;;;;;;;;;;10349211;28;20117;-78
2023/03/18 05:44:07;;;;;;;9.83;5.30;;;;;;;;;;10347243;28;20042;-78
2023/03/18 05:49:07;;;;;;;12.90;5.05;;;;;;;;;;10347561;28;20770;-78
2023/03/18 05:54:08;;;;;;;13.25;5.63;;;;;;;;;;10330220;28;20035;-78
2023/03/18 05:59:08;;;;;;;10.85;5.10;;;;;;;;;;10328288;28;20114;-80
2023/03/18 06:04:09;;;;;;;10.80;6.38;;;;;;;;;;10359719;28;20044;-78
2023/03/18 06:09:10;;;;;;;8.73;4.47;;;;;;;;;;10343987;28;20042;-77
2023/03/18 06:14:11;;;;;;;7.78;4.25;;;;;;;;;;10321486;28;20039;-78
2023/03/18 06:19:13;;;;;;;10.07;4.47;;;;;;;;;;10359252;28;20037;-77
2023/03/18 06:24:14;;;;;;;8.40;4.60;;;;;;;;;;10331894;28;20045;-77
2023/03/18 06:29:15;;;;;;;6.63;4.13;;;;;;;;;;10325101;28;20069;-82
2023/03/18 06:34:15;;;;;;;17.80;5.50;;;;;;;;;;10323428;28;20115;-84
2023/03/18 06:39:16;;;;;;;9.50;5.40;;;;;;;;;;10344582;28;20099;-74
2023/03/18 06:44:18;;;;;;;14.13;6.03;;;;;;;;;;10327730;28;20041;-75
2023/03/18 06:49:18;;;;;;;11.15;5.88;;;;;;;;;;10320938;28;20061;-75
2023/03/18 06:54:19;;;;;;;10.73;5.80;;;;;;;;;;10327434;28;20038;-77
2023/03/18 06:59:22;;;;;;;11.27;6.70;;;;;;;;;;10333115;28;20132;-74
2023/03/18 07:04:23;;;;;;;11.88;5.72;;;;;;;;;;10333567;28;20359;-75
2023/03/18 07:09:23;;;;;;;12.27;5.50;;;;;;;;;;10350568;28;20515;-87
2023/03/18 07:14:24;;;;;;;18.17;8.52;;;;;;;;;;10346804;28;20092;-74
2023/03/18 07:19:24;;;;;;;24.75;9.65;;;;;;;;;;10338961;28;20033;-72
2023/03/18 07:24:25;;;;;;;26.17;12.07;;;;;;;;;;10346987;28;20042;-74
2023/03/18 07:29:25;;;;;;;21.13;12.05;;;;;;;;;;10331526;28;20087;-74
2023/03/18 07:34:26;;;;;;;25.00;12.77;;;;;;;;;;10336932;28;20041;-76
2023/03/18 07:39:26;;;;;;;34.72;17.33;;;;;;;;;;10328847;28;20480;-74
2023/03/18 07:44:26;;;;;;;29.47;16.93;;;;;;;;;;10332543;28;20042;-73
2023/03/18 07:49:27;;;;;;;31.57;16.37;;;;;;;;;;10331466;28;20057;-72
2023/03/18 07:54:38;;;;;;;33.43;17.37;;;;;;;;;;10330783;28;20508;-91
2023/03/18 07:59:38;;;;;;;36.45;16.27;;;;;;;;;;10339221;28;20285;-71
2023/03/18 08:04:39;;;;;;;31.05;15.52;;;;;;;;;;10325372;28;20473;-73
2023/03/18 08:09:39;;;;;;;32.55;16.13;;;;;;;;;;10334465;28;20121;-77
2023/03/18 08:14:40;;;;;;;37.20;15.83;;;;;;;;;;10326783;28;20052;-72
2023/03/18 08:19:40;;;;;;;26.35;14.57;;;;;;;;;;10328655;28;20307;-70
2023/03/18 08:24:41;;;;;;;33.03;14.27;;;;;;;;;;10326482;28;20031;-69
2023/03/18 08:29:42;;;;;;;28.83;13.82;;;;;;;;;;10341007;28;20281;-69
2023/03/18 08:34:42;;;;;;;28.47;14.87;;;;;;;;;;10333048;28;20109;-70
2023/03/18 08:39:43;;;;;;;29.42;14.95;;;;;;;;;;10341055;28;20054;-77
2023/03/18 08:44:43;;;;;;;23.77;13.27;;;;;;;;;;10328817;28;20040;-70
2023/03/18 08:49:44;;;;;;;25.35;12.82;;;;;;;;;;10332227;28;20041;-77
2023/03/18 08:54:44;;;;;;;29.70;15.13;;;;;;;;;;10337403;28;20046;-70
2023/03/18 08:59:45;;;;;;;28.75;14.35;;;;;;;;;;10335314;28;20045;-69
2023/03/18 09:04:47;;;;;;;35.85;14.45;;;;;;;;;;10337998;28;20350;-70
2023/03/18 09:09:47;;;;;;;28.30;13.20;;;;;;;;;;10349479;28;20436;-68
2023/03/18 09:14:47;;;;;;;24.73;12.27;;;;;;;;;;10358190;28;20046;-70
2023/03/18 09:19:48;;;;;;;19.40;10.40;;;;;;;;;;10345350;28;20132;-69
2023/03/18 09:24:48;;;;;;;14.50;7.90;;;;;;;;;;10350876;28;20038;-69
2023/03/18 09:29:48;;;;;;;15.27;8.45;;;;;;;;;;10354180;28;20268;-70
2023/03/18 09:34:49;;;;;;;16.95;8.43;;;;;;;;;;10354793;28;20042;-71
2023/03/18 09:39:50;;;;;;;15.30;7.32;;;;;;;;;;10351531;28;20032;-70
2023/03/18 09:45:01;;;;;;;8.20;5.03;;;;;;;;;;10351324;28;20054;-69
2023/03/18 09:50:10;;;;;;;9.80;4.82;;;;;;;;;;10347694;28;20030;-69
2023/03/18 09:55:11;;;;;;;6.82;4.65;;;;;;;;;;10351243;28;20030;-70
2023/03/18 10:00:12;;;;;;;7.18;4.25;;;;;;;;;;10360360;28;20033;-71
2023/03/18 10:05:14;;;;;;;12.18;4.88;;;;;;;;;;10366561;28;20059;-69
2023/03/18 10:10:21;;;;;;;6.22;3.22;;;;;;;;;;10342264;28;20714;-69
2023/03/18 10:15:33;;;;;;;7.93;4.43;;;;;;;;;;10356839;28;20396;-70
2023/03/18 10:20:52;;;;;;;9.38;3.45;;;;;;;;;;10352948;28;20038;-72
2023/03/18 10:25:53;;;;;;;5.57;3.03;;;;;;;;;;10364422;28;20057;-71
2023/03/18 10:31:05;;;;;;;10.02;3.20;;;;;;;;;;10364318;28;20040;-71
2023/03/18 10:36:28;;;;;;;4.60;3.10;;;;;;;;;;10344992;28;20802;-71
2023/03/18 10:41:31;;;;;;;4.38;2.63;;;;;;;;;;10350721;28;20042;-70
2023/03/18 10:46:32;;;;;;;5.22;2.35;;;;;;;;;;10347490;28;20069;-70
2023/03/18 10:51:40;;;;;;;6.45;3.20;;;;;;;;;;10347899;28;20099;-71
2023/03/18 10:56:41;;;;;;;6.65;2.78;;;;;;;;;;10351037;28;20034;-71
2023/03/18 11:01:44;;;;;;;4.13;2.33;;;;;;;;;;10349320;28;20033;-69
2023/03/18 11:06:44;;;;;;;7.45;3.00;;;;;;;;;;10345408;28;20049;-69
2023/03/18 11:11:47;;;;;;;4.22;2.10;;;;;;;;;;10348022;28;20542;-69
2023/03/18 11:16:50;;;;;;;7.65;2.80;;;;;;;;;;10349184;28;20066;-69
2023/03/18 11:22:00;;;;;;;3.75;2.85;;;;;;;;;;10352240;28;20488;-70
2023/03/18 11:27:01;;;;;;;5.43;3.03;;;;;;;;;;10346028;28;20163;-70
2023/03/18 11:32:01;;;;;;;7.70;2.88;;;;;;;;;;10355595;28;20474;-70
2023/03/18 11:37:03;;;;;;;8.23;2.70;;;;;;;;;;10346181;28;20029;-70
2023/03/18 11:42:17;;;;;;;4.50;2.80;;;;;;;;;;10362422;28;20049;-70
2023/03/18 11:47:23;;;;;;;9.70;4.00;;;;;;;;;;10347274;28;20532;-70
2023/03/18 11:52:42;;;;;;;7.68;3.50;;;;;;;;;;10356383;28;20721;-71
2023/03/18 11:58:01;;;;;;;7.32;3.80;;;;;;;;;;10347695;28;20493;-70
2023/03/18 12:03:21;;;;;;;7.80;3.30;;;;;;;;;;10352331;28;20030;-70
2023/03/18 12:08:25;;;;;;;4.28;3.30;;;;;;;;;;10353265;28;20158;-70
2023/03/18 12:13:47;;;;;;;8.65;2.80;;;;;;;;;;10355367;28;20911;-70
2023/03/18 12:18:56;;;;;;;6.18;3.50;;;;;;;;;;10347708;28;20022;-70
2023/03/18 12:24:02;;;;;;;10.05;3.75;;;;;;;;;;10343185;28;20030;-71
2023/03/18 12:29:30;;;;;;;9.90;3.63;;;;;;;;;;10348236;28;20030;-71
2023/03/18 12:34:48;;;;;;;6.63;3.10;;;;;;;;;;10350983;28;20030;-71
2023/03/18 12:40:11;;;;;;;7.90;3.95;;;;;;;;;;10350679;28;20030;-71
2023/03/18 12:45:14;;;;;;;5.15;3.35;;;;;;;;;;10349678;28;20407;-71
2023/03/18 12:50:35;;;;;;;5.40;3.53;;;;;;;;;;10357138;28;20168;-71
2023/03/18 12:55:38;;;;;;;7.25;3.50;;;;;;;;;;10357613;28;20032;-71
2023/03/18 13:00:41;;;;;;;6.00;3.70;;;;;;;;;;10350723;28;20759;-71
2023/03/18 13:06:11;;;;;;;8.80;3.80;;;;;;;;;;10354816;28;20022;-69
2023/03/18 13:11:19;;;;;;;5.60;3.38;;;;;;;;;;10349558;28;20034;-71
2023/03/18 13:16:22;;;;;;;6.03;3.00;;;;;;;;;;10346540;28;20555;-71
2023/03/18 13:21:24;;;;;;;4.78;3.20;;;;;;;;;;10349871;28;20033;-71
2023/03/18 13:26:43;;;;;;;6.60;3.25;;;;;;;;;;10349602;28;20048;-71
2023/03/18 13:31:51;;;;;;;8.48;3.28;;;;;;;;;;10364055;28;20032;-71
2023/03/18 13:36:51;;;;;;;7.72;2.70;;;;;;;;;;10349611;28;20543;-71
2023/03/18 13:42:01;;;;;;;4.18;2.90;;;;;;;;;;10346776;28;20102;-69
2023/03/18 13:47:03;;;;;;;6.13;3.20;;;;;;;;;;10353205;28;20038;-71
2023/03/18 13:52:19;;;;;;;5.45;3.10;;;;;;;;;;10353673;28;20119;-71
2023/03/18 13:57:23;;;;;;;3.25;2.30;;;;;;;;;;10352187;28;20026;-70
2023/03/18 14:02:29;;;;;;;6.63;2.80;;;;;;;;;;10353159;28;20034;-69
2023/03/18 14:07:29;;;;;;;5.38;3.17;;;;;;;;;;10347743;28;20544;-70
2023/03/18 14:12:29;;;;;;;5.90;2.80;;;;;;;;;;10349353;28;20552;-70
2023/03/18 14:17:36;;;;;;;7.47;2.73;;;;;;;;;;10352459;28;20412;-70
2023/03/18 14:22:38;;;;;;;3.83;2.83;;;;;;;;;;10353059;28;20022;-71
2023/03/18 14:27:44;;;;;;;4.85;2.17;;;;;;;;;;10346883;28;20048;-71
2023/03/18 14:32:55;;;;;;;5.10;2.55;;;;;;;;;;10373017;28;20401;-70
2023/03/18 14:38:05;;;;;;;6.18;3.08;;;;;;;;;;10348498;28;20021;-69
2023/03/18 14:43:09;;;;;;;3.97;2.88;;;;;;;;;;10364037;28;20021;-70
2023/03/18 14:48:17;;;;;;;4.13;2.60;;;;;;;;;;10348972;28;20749;-72
2023/03/18 14:53:19;;;;;;;6.30;3.30;;;;;;;;;;10348922;28;20123;-71
2023/03/18 14:58:20;;;;;;;7.05;3.03;;;;;;;;;;10356634;28;20030;-70
2023/03/18 15:03:27;;;;;;;5.55;2.90;;;;;;;;;;10345046;28;20104;-71
2023/03/18 15:08:29;;;;;;;5.40;2.90;;;;;;;;;;10345720;28;20034;-72
2023/03/18 15:13:29;;;;;;;4.75;2.45;;;;;;;;;;10330770;28;20026;-72
2023/03/18 15:18:35;;;;;;;10.98;2.80;;;;;;;;;;10349354;28;20036;-73
2023/03/18 15:23:37;;;;;;;4.82;2.42;;;;;;;;;;10342557;28;20041;-73
2023/03/18 15:28:38;;;;;;;14.27;3.22;;;;;;;;;;10342765;28;20053;-71
2023/03/18 15:33:38;;;;;;;7.07;2.95;;;;;;;;;;10338711;28;20536;-71
2023/03/18 15:38:44;;;;;;;7.43;2.53;;;;;;;;;;10355611;28;20053;-70
2023/03/18 15:43:45;;;;;;;6.45;3.20;;;;;;;;;;10341593;28;20033;-72
2023/03/18 15:48:53;;;;;;;8.13;3.30;;;;;;;;;;10339378;28;20161;-72
2023/03/18 15:53:55;;;;;;;3.78;2.60;;;;;;;;;;10341230;28;20061;-72
2023/03/18 15:59:16;;;;;;;9.73;2.90;;;;;;;;;;10340616;28;20061;-72
2023/03/18 16:04:17;;;;;;;5.13;2.83;;;;;;;;;;10327018;28;20041;-72
2023/03/18 16:09:18;;;;;;;7.13;2.60;;;;;;;;;;10335416;28;20556;-72
2023/03/18 16:14:20;;;;;;;9.00;3.35;;;;;;;;;;10329591;28;20638;-71
2023/03/18 16:19:26;;;;;;;6.50;3.38;;;;;;;;;;10350652;28;20038;-73
2023/03/18 16:24:27;;;;;;;9.48;3.63;;;;;;;;;;10327048;28;20125;-73
2023/03/18 16:29:29;;;;;;;10.50;3.38;;;;;;;;;;10334208;28;20251;-70
2023/03/18 16:34:30;;;;;;;6.63;3.67;;;;;;;;;;10334128;28;20668;-72
2023/03/18 16:39:32;;;;;;;10.13;3.28;;;;;;;;;;10342482;28;20690;-71
2023/03/18 16:44:33;;;;;;;6.75;3.55;;;;;;;;;;10347349;28;20405;-71
2023/03/18 16:49:36;;;;;;;7.72;3.30;;;;;;;;;;10333464;28;20049;-71
2023/03/18 16:54:36;;;;;;;8.23;3.42;;;;;;;;;;10343493;28;20066;-71
2023/03/18 16:59:37;;;;;;;9.70;4.03;;;;;;;;;;10338892;28;20025;-71
2023/03/18 17:04:37;;;;;;;15.35;4.10;;;;;;;;;;10352571;28;20472;-69
2023/03/18 17:09:37;;;;;;;10.90;4.63;;;;;;;;;;10341738;28;20037;-69
2023/03/18 17:14:39;;;;;;;8.65;4.95;;;;;;;;;;10331966;28;20045;-72
2023/03/18 17:19:40;;;;;;;10.75;5.40;;;;;;;;;;10337572;28;20508;-70
2023/03/18 17:24:40;;;;;;;14.60;6.82;;;;;;;;;;10346315;28;20423;-68
2023/03/18 17:29:40;;;;;;;10.63;4.90;;;;;;;;;;10335930;28;20042;-69
2023/03/18 17:34:42;;;;;;;16.63;6.57;;;;;;;;;;10337405;28;20042;-71
2023/03/18 17:39:42;;;;;;;11.70;5.93;;;;;;;;;;10362767;28;20030;-70
2023/03/18 17:44:42;;;;;;;16.08;6.22;;;;;;;;;;10331943;28;20412;-68
2023/03/18 17:49:43;;;;;;;16.00;7.07;;;;;;;;;;10336815;28;20062;-69
2023/03/18 17:54:43;;;;;;;12.53;6.83;;;;;;;;;;10347348;28;20048;-69
2023/03/18 17:59:44;;;;;;;12.98;6.28;;;;;;;;;;10357008;28;20370;-69
2023/03/18 18:04:45;;;;;;;13.25;6.60;;;;;;;;;;10339757;28;20034;-70
2023/03/18 18:09:46;;;;;;;16.85;7.25;;;;;;;;;;10340523;28;20108;-70
2023/03/18 18:14:46;;;;;;;18.20;7.60;;;;;;;;;;10335932;28;20031;-70
2023/03/18 18:19:46;;;;;;;22.97;6.37;;;;;;;;;;10334825;28;20034;-70
2023/03/18 18:24:47;;;;;;;13.63;6.70;;;;;;;;;;10344011;28;21108;-70
2023/03/18 18:29:47;;;;;;;12.98;6.60;;;;;;;;;;10332429;28;20320;-70
2023/03/18 18:34:48;;;;;;;13.70;4.87;;;;;;;;;;10342421;28;20042;-71
2023/03/18 18:39:48;;;;;;;13.65;5.88;;;;;;;;;;10342032;28;20033;-70
2023/03/18 18:44:50;;;;;;;15.70;6.40;;;;;;;;;;10332579;28;20510;-70
2023/03/18 18:49:51;;;;;;;11.32;5.93;;;;;;;;;;10338444;28;20272;-70
2023/03/18 18:54:51;;;;;;;10.32;5.57;;;;;;;;;;10340249;28;20761;-70
2023/03/18 18:59:52;;;;;;;17.98;6.63;;;;;;;;;;10331396;28;20045;-70
2023/03/18 19:04:52;;;;;;;16.05;6.40;;;;;;;;;;10359022;28;20029;-70
2023/03/18 19:09:53;;;;;;;17.30;7.20;;;;;;;;;;10350361;28;20079;-70
2023/03/18 19:14:53;;;;;;;17.67;7.30;;;;;;;;;;10348216;28;20033;-70
2023/03/18 19:19:54;;;;;;;15.80;7.13;;;;;;;;;;10349882;28;20088;-71
2023/03/18 19:24:55;;;;;;;19.98;8.30;;;;;;;;;;10341145;28;21768;-72
2023/03/18 19:29:57;;;;;;;30.00;7.82;;;;;;;;;;10345273;28;20042;-70
2023/03/18 19:34:57;;;;;;;19.77;9.57;;;;;;;;;;10348552;28;20480;-72
2023/03/18 19:39:58;;;;;;;25.55;9.40;;;;;;;;;;10348176;28;20033;-71
2023/03/18 19:44:59;;;;;;;19.02;9.02;;;;;;;;;;10340341;28;20124;-71
2023/03/18 19:50:00;;;;;;;19.90;7.57;;;;;;;;;;10351066;28;20388;-72
2023/03/18 19:55:07;;;;;;;17.77;7.05;;;;;;;;;;10348253;28;20026;-71
2023/03/18 20:00:25;;;;;;;20.60;7.03;;;;;;;;;;10351064;28;20709;-72
2023/03/18 20:05:26;;;;;;;19.60;7.95;;;;;;;;;;10349741;28;20536;-70
2023/03/18 20:10:26;;;;;;;19.52;8.55;;;;;;;;;;10339294;28;20055;-71
2023/03/18 20:15:28;;;;;;;22.13;8.60;;;;;;;;;;10350905;28;20773;-71
2023/03/18 20:20:29;;;;;;;24.42;9.18;;;;;;;;;;10347151;28;20041;-70
2023/03/18 20:25:34;;;;;;;21.42;10.32;;;;;;;;;;10332213;28;20034;-71
2023/03/18 20:30:35;;;;;;;22.63;8.35;;;;;;;;;;10314584;28;20401;-70
2023/03/18 20:35:37;;;;;;;14.85;6.95;;;;;;;;;;10341715;28;20039;-70
2023/03/18 20:40:37;;;;;;;12.75;6.85;;;;;;;;;;10339708;28;20110;-71
2023/03/18 20:45:37;;;;;;;17.23;6.60;;;;;;;;;;10338577;28;20481;-73
2023/03/18 20:50:38;;;;;;;15.50;6.20;;;;;;;;;;10351729;28;20107;-70
2023/03/18 20:55:38;;;;;;;19.67;6.13;;;;;;;;;;10333862;28;20107;-71
2023/03/18 21:00:38;;;;;;;13.10;5.63;;;;;;;;;;10338528;28;20031;-71
2023/03/18 21:05:39;;;;;;;13.98;6.78;;;;;;;;;;10345442;28;20986;-71
2023/03/18 21:10:39;;;;;;;19.90;6.80;;;;;;;;;;10360237;28;20133;-70
2023/03/18 21:15:40;;;;;;;12.48;5.90;;;;;;;;;;10340832;28;20029;-71
2023/03/18 21:20:40;;;;;;;13.32;5.50;;;;;;;;;;10361898;28;20037;-70
2023/03/18 21:25:40;;;;;;;13.93;5.63;;;;;;;;;;10344966;28;20084;-71
2023/03/18 21:30:42;;;;;;;8.98;4.82;;;;;;;;;;10354504;28;20265;-72
2023/03/18 21:35:42;;;;;;;12.95;5.20;;;;;;;;;;10333432;28;20361;-70
2023/03/18 21:40:43;;;;;;;14.13;5.72;;;;;;;;;;10341376;28;20036;-70
2023/03/18 21:45:43;;;;;;;9.63;5.53;;;;;;;;;;10337087;28;20100;-70
2023/03/18 21:50:43;;;;;;;10.77;5.25;;;;;;;;;;10342966;28;20033;-69
2023/03/18 21:55:44;;;;;;;8.20;4.63;;;;;;;;;;10340666;28;20056;-71
2023/03/18 22:00:47;;;;;;;9.50;5.47;;;;;;;;;;10337444;28;20026;-70
2023/03/18 22:05:50;;;;;;;13.50;6.15;;;;;;;;;;10354818;28;20376;-70
2023/03/18 22:10:50;;;;;;;15.13;7.03;;;;;;;;;;10341664;28;20149;-72
2023/03/18 22:15:51;;;;;;;16.85;8.20;;;;;;;;;;10338623;28;20038;-70
2023/03/18 22:20:52;;;;;;;26.50;12.70;;;;;;;;;;10348914;28;20054;-71
2023/03/18 22:25:53;;;;;;;34.33;12.37;;;;;;;;;;10348293;28;20378;-72
2023/03/18 22:30:56;;;;;;;26.25;12.90;;;;;;;;;;10339375;28;20034;-71
2023/03/18 22:35:57;;;;;;;35.70;16.30;;;;;;;;;;10331955;28;20038;-72
2023/03/18 22:40:57;;;;;;;38.77;15.93;;;;;;;;;;10347057;28;20031;-72
2023/03/18 22:45:58;;;;;;;37.72;14.70;;;;;;;;;;10339539;28;20619;-71
2023/03/18 22:50:59;;;;;;;33.42;15.20;;;;;;;;;;10341285;28;20042;-71
2023/03/18 22:56:17;;;;;;;33.20;17.35;;;;;;;;;;10345629;28;20025;-70
2023/03/18 23:01:19;;;;;;;35.53;15.38;;;;;;;;;;10345042;28;20041;-71
2023/03/18 23:06:22;;;;;;;34.78;16.08;;;;;;;;;;10342719;28;20493;-71
2023/03/18 23:11:22;;;;;;;36.28;16.40;;;;;;;;;;10349771;28;20481;-71
2023/03/18 23:16:24;;;;;;;37.30;15.83;;;;;;;;;;10339579;28;20037;-71
2023/03/18 23:21:25;;;;;;;38.35;15.80;;;;;;;;;;10336947;28;20321;-74
2023/03/18 23:26:26;;;;;;;28.13;12.90;;;;;;;;;;10341201;28;20842;-70
2023/03/18 23:31:26;;;;;;;34.90;14.13;;;;;;;;;;10338879;28;20123;-70
2023/03/18 23:36:27;;;;;;;29.08;13.30;;;;;;;;;;10340054;28;20552;-70
2023/03/18 23:41:27;;;;;;;27.35;13.13;;;;;;;;;;10341051;28;20034;-71
2023/03/18 23:46:28;;;;;;;26.95;13.73;;;;;;;;;;10340413;28;20049;-71
2023/03/18 23:51:28;;;;;;;35.42;15.02;;;;;;;;;;10341841;28;20042;-71
2023/03/18 23:56:28;;;;;;;30.25;13.00;;;;;;;;;;10340410;28;20034;-71
